Time;durP1;ratioP1;P1;durP2;ratioP2;P2;SDS_P1;SDS_P2;PMS_P1;PMS_P2;Temp;Humidity;BMP_temperature;BMP_pressure;BME280_temperature;BME280_humidity;BME280_pressure;Samples;Min_cycle;Max_cycle;Signal;HPM_P1;HPM_P2
2020/12/21 00:01:40;;;;;;;21.43;17.97;;;7.20;99.90;;;;;;4949826;28;20893;-85
2020/12/21 00:04:06;;;;;;;18.17;16.30;;;7.20;99.90;;;;;;4951047;29;20187;-89
2020/12/21 00:06:32;;;;;;;23.50;17.73;;;7.10;99.90;;;;;;4949725;28;20473;-85
2020/12/21 00:08:57;;;;;;;20.10;17.60;;;7.10;99.90;;;;;;4950825;28;20187;-84
2020/12/21 00:11:34;;;;;;;20.77;18.57;;;7.20;99.90;;;;;;4947579;28;20186;-85
2020/12/21 00:14:01;;;;;;;23.80;19.17;;;7.20;99.90;;;;;;4950694;28;20564;-85
2020/12/21 00:16:26;;;;;;;24.57;19.67;;;7.30;99.90;;;;;;4949036;28;20454;-85
2020/12/21 00:18:52;;;;;;;20.70;18.27;;;7.30;99.90;;;;;;4951361;29;20482;-85
2020/12/21 00:21:18;;;;;;;22.23;19.37;;;7.30;99.90;;;;;;4948132;28;20186;-85
2020/12/21 00:23:43;;;;;;;21.90;18.23;;;7.20;99.90;;;;;;4947751;28;20194;-85
2020/12/21 00:26:09;;;;;;;21.90;18.30;;;7.20;99.90;;;;;;4952056;29;20179;-87
2020/12/21 00:28:35;;;;;;;21.10;18.90;;;7.10;99.90;;;;;;4949606;28;20175;-86
2020/12/21 00:31:00;;;;;;;31.30;26.23;;;7.10;99.90;;;;;;4949526;28;20183;-86
2020/12/21 00:33:31;;;;;;;34.30;28.80;;;7.10;99.90;;;;;;4950486;28;20198;-86
2020/12/21 00:35:57;;;;;;;22.40;20.07;;;7.10;99.90;;;;;;4949211;28;21154;-86
2020/12/21 00:38:22;;;;;;;20.60;18.60;;;7.10;99.90;;;;;;4950082;28;20462;-86
2020/12/21 00:40:48;;;;;;;22.20;18.10;;;7.00;99.90;;;;;;4950218;29;20197;-91
2020/12/21 00:43:14;;;;;;;16.90;15.23;;;7.00;99.90;;;;;;4951784;28;20703;-92
2020/12/21 00:45:39;;;;;;;18.57;16.60;;;7.10;99.90;;;;;;4940515;28;20685;-91
2020/12/21 00:48:05;;;;;;;20.33;17.60;;;7.10;99.90;;;;;;4949581;28;20197;-90
2020/12/21 00:50:31;;;;;;;18.03;16.20;;;7.00;99.90;;;;;;4949897;28;20534;-89
2020/12/21 00:52:56;;;;;;;17.67;15.03;;;6.90;99.90;;;;;;4946796;28;20187;-90
2020/12/21 00:55:22;;;;;;;17.40;15.60;;;6.90;99.90;;;;;;4947161;28;20190;-88
2020/12/21 00:57:48;;;;;;;17.10;15.30;;;6.90;99.90;;;;;;4950415;28;20747;-89
2020/12/21 01:00:13;;;;;;;16.33;14.50;;;6.80;99.90;;;;;;4949801;28;20221;-89
2020/12/21 01:02:39;;;;;;;16.23;14.53;;;6.70;99.90;;;;;;4948210;28;20194;-88
2020/12/21 01:05:05;;;;;;;17.63;15.83;;;6.80;99.90;;;;;;4949971;28;20697;-89
2020/12/21 01:07:31;;;;;;;17.03;15.20;;;6.70;99.90;;;;;;4949693;29;20179;-89
2020/12/21 01:09:56;;;;;;;18.93;15.97;;;6.70;99.90;;;;;;4948041;28;20180;-88
2020/12/21 01:12:22;;;;;;;16.77;14.73;;;6.70;99.90;;;;;;4948815;28;20194;-85
2020/12/21 01:14:48;;;;;;;17.57;15.63;;;6.60;99.90;;;;;;4950289;28;20727;-89
2020/12/21 01:17:14;;;;;;;18.43;15.60;;;6.50;99.90;;;;;;4948164;28;20189;-89
2020/12/21 01:19:39;;;;;;;19.20;17.10;;;6.40;99.90;;;;;;4948878;28;20482;-88
2020/12/21 01:22:06;;;;;;;17.33;15.53;;;6.30;99.90;;;;;;4949632;28;20225;-89
2020/12/21 01:24:32;;;;;;;17.83;16.03;;;6.20;99.90;;;;;;4946902;28;20195;-89
2020/12/21 01:26:57;;;;;;;17.30;15.50;;;6.20;99.90;;;;;;4947932;28;20950;-87
2020/12/21 01:29:23;;;;;;;16.50;14.80;;;6.20;99.90;;;;;;4947821;28;20184;-88
2020/12/21 01:31:49;;;;;;;16.63;14.93;;;6.10;99.90;;;;;;4951112;28;20257;-94
2020/12/21 01:34:15;;;;;;;16.90;14.50;;;6.10;99.90;;;;;;4950528;28;20225;-92
2020/12/21 01:36:41;;;;;;;14.17;12.87;;;6.00;99.90;;;;;;4951632;28;20215;-93
2020/12/21 01:39:07;;;;;;;15.27;13.77;;;6.00;99.90;;;;;;4951063;28;20477;-94
2020/12/21 01:41:34;;;;;;;15.30;13.70;;;5.90;99.90;;;;;;4951326;28;20437;-94
2020/12/21 01:43:59;;;;;;;14.83;13.33;;;5.70;99.90;;;;;;4951391;29;20445;-93
2020/12/21 01:46:26;;;;;;;14.30;12.90;;;5.60;99.90;;;;;;4949796;28;21007;-93
2020/12/21 01:48:52;;;;;;;12.97;11.77;;;5.50;99.90;;;;;;4947760;28;20181;-85
2020/12/21 01:51:26;;;;;;;18.37;11.57;;;5.40;99.90;;;;;;4949645;28;20441;-84
2020/12/21 01:53:53;;;;;;;12.00;10.73;;;5.30;99.90;;;;;;4949299;29;20530;-85
2020/12/21 01:56:19;;;;;;;14.57;12.20;;;5.20;99.90;;;;;;4947583;28;20441;-85
2020/12/21 01:58:46;;;;;;;16.47;13.83;;;5.10;99.90;;;;;;4948344;28;20478;-84
2020/12/21 02:01:14;;;;;;;14.23;12.90;;;5.10;99.90;;;;;;4948487;28;20525;-84
2020/12/21 02:03:43;;;;;;;12.70;11.40;;;5.00;99.90;;;;;;4943416;28;20460;-91
2020/12/21 02:06:10;;;;;;;10.93;9.93;;;5.00;99.90;;;;;;4949719;28;20466;-92
2020/12/21 02:08:36;;;;;;;10.80;9.73;;;5.10;99.90;;;;;;4948725;28;20440;-91
2020/12/21 02:11:03;;;;;;;9.23;8.43;;;5.20;99.90;;;;;;4960214;28;20779;-90
2020/12/21 02:13:29;;;;;;;10.10;9.20;;;5.10;99.90;;;;;;4969853;28;20447;-91
2020/12/21 02:15:55;;;;;;;10.60;9.50;;;5.00;99.90;;;;;;4971700;28;20480;-91
2020/12/21 02:18:21;;;;;;;10.20;9.30;;;5.00;99.90;;;;;;4971267;28;20223;-91
2020/12/21 02:20:47;;;;;;;9.73;8.93;;;5.00;99.90;;;;;;4963913;28;20439;-90
2020/12/21 02:23:13;;;;;;;11.03;10.13;;;5.00;99.90;;;;;;4958075;28;20278;-87
2020/12/21 02:25:38;;;;;;;11.07;9.70;;;4.90;99.90;;;;;;4954816;28;20188;-87
2020/12/21 02:28:04;;;;;;;11.53;10.40;;;4.90;99.90;;;;;;4956444;28;20195;-86
2020/12/21 02:30:30;;;;;;;11.73;10.43;;;4.90;99.90;;;;;;4954390;28;20183;-88
2020/12/21 02:32:56;;;;;;;14.57;12.97;;;4.90;99.90;;;;;;4958470;28;20583;-87
2020/12/21 02:35:21;;;;;;;16.83;13.70;;;5.00;99.90;;;;;;4963886;28;20180;-85
2020/12/21 02:37:48;;;;;;;14.00;11.67;;;5.00;99.90;;;;;;4964054;28;20720;-85
2020/12/21 02:40:14;;;;;;;13.57;12.30;;;5.00;99.90;;;;;;4960928;28;20194;-84
2020/12/21 02:42:39;;;;;;;15.47;13.87;;;5.00;99.90;;;;;;4961412;28;20549;-85
2020/12/21 02:45:05;;;;;;;12.90;11.10;;;4.90;99.90;;;;;;4959350;28;20191;-85
2020/12/21 02:47:31;;;;;;;11.80;10.03;;;4.90;99.90;;;;;;4958228;28;20190;-84
2020/12/21 02:49:56;;;;;;;14.90;10.97;;;4.80;99.90;;;;;;4949285;28;20184;-84
2020/12/21 02:52:22;;;;;;;11.00;9.97;;;4.70;99.90;;;;;;4949013;29;20207;-84
2020/12/21 02:54:48;;;;;;;10.80;9.80;;;4.50;99.90;;;;;;4945919;28;20199;-84
2020/12/21 02:57:14;;;;;;;11.00;9.90;;;4.50;99.90;;;;;;4948297;28;20530;-86
2020/12/21 02:59:40;;;;;;;10.67;9.57;;;4.30;99.90;;;;;;4948309;28;20218;-87
2020/12/21 03:02:06;;;;;;;11.53;9.83;;;4.20;99.90;;;;;;4945503;28;20610;-87
2020/12/21 03:04:33;;;;;;;10.80;9.70;;;4.10;99.90;;;;;;4943634;28;20470;-87
2020/12/21 03:07:00;;;;;;;10.53;9.43;;;4.10;99.90;;;;;;4948125;28;21035;-86
2020/12/21 03:09:26;;;;;;;9.73;8.83;;;4.00;99.90;;;;;;4947324;28;20538;-87
2020/12/21 03:11:51;;;;;;;9.60;8.60;;;4.00;99.90;;;;;;4946901;28;20529;-87
2020/12/21 03:14:17;;;;;;;9.13;8.20;;;3.80;99.90;;;;;;4948096;28;20183;-86
2020/12/21 03:16:43;;;;;;;8.50;7.80;;;3.90;99.90;;;;;;4945384;28;20186;-86
2020/12/21 03:19:08;;;;;;;10.33;9.23;;;3.80;99.90;;;;;;4947124;28;20261;-87
2020/12/21 03:21:34;;;;;;;19.70;11.17;;;3.80;99.90;;;;;;4947560;29;20187;-87
2020/12/21 03:23:59;;;;;;;10.93;9.93;;;3.80;99.90;;;;;;4947263;28;20506;-87
2020/12/21 03:26:26;;;;;;;16.27;11.47;;;3.80;99.90;;;;;;4947701;28;20187;-87
2020/12/21 03:28:51;;;;;;;13.73;10.80;;;3.80;99.90;;;;;;4952819;28;20556;-93
2020/12/21 03:31:17;;;;;;;12.57;10.60;;;3.80;99.90;;;;;;4951258;28;20457;-94
2020/12/21 03:33:43;;;;;;;13.57;11.50;;;3.80;99.90;;;;;;4952132;28;20247;-93
2020/12/21 03:36:09;;;;;;;12.77;10.73;;;3.80;99.90;;;;;;4950073;28;20519;-92
2020/12/21 03:38:35;;;;;;;11.27;9.47;;;3.90;99.90;;;;;;4950032;29;20577;-93
2020/12/21 03:41:01;;;;;;;11.20;9.63;;;3.80;99.90;;;;;;4948234;28;20199;-92
2020/12/21 03:43:27;;;;;;;11.93;10.40;;;3.80;99.90;;;;;;4947094;28;20469;-91
2020/12/21 03:45:54;;;;;;;10.47;9.33;;;3.70;99.90;;;;;;4947942;28;20250;-89
2020/12/21 03:48:20;;;;;;;10.17;9.13;;;3.60;99.90;;;;;;4950983;28;20284;-93
2020/12/21 03:50:46;;;;;;;11.57;9.17;;;3.50;99.90;;;;;;4951430;28;20523;-92
2020/12/21 03:53:11;;;;;;;8.73;7.83;;;3.40;99.90;;;;;;4954351;29;20175;-93
2020/12/21 03:55:37;;;;;;;8.97;8.07;;;3.30;99.90;;;;;;4951979;28;20181;-93
2020/12/21 03:58:03;;;;;;;9.43;8.47;;;3.20;99.90;;;;;;4951080;28;20224;-93
2020/12/21 04:00:29;;;;;;;10.00;9.03;;;3.20;99.90;;;;;;4952997;28;20193;-92
2020/12/21 04:02:55;;;;;;;8.23;7.43;;;3.20;99.90;;;;;;4950819;28;20210;-84
2020/12/21 04:05:21;;;;;;;7.50;7.00;;;3.20;99.90;;;;;;4950476;28;20513;-84
2020/12/21 04:07:48;;;;;;;6.97;6.40;;;3.10;99.90;;;;;;4950976;28;20479;-84
2020/12/21 04:10:13;;;;;;;6.90;6.30;;;3.10;99.90;;;;;;4948871;29;20438;-85
2020/12/21 04:12:39;;;;;;;6.80;6.27;;;3.20;99.90;;;;;;4951374;28;20446;-85
2020/12/21 04:15:05;;;;;;;7.07;6.47;;;3.00;99.90;;;;;;4949886;28;20197;-85
2020/12/21 04:17:31;;;;;;;7.27;6.57;;;3.10;99.90;;;;;;4946915;28;20182;-84
2020/12/21 04:19:57;;;;;;;6.60;6.03;;;3.10;99.90;;;;;;4950358;29;21071;-91
2020/12/21 04:22:22;;;;;;;7.43;6.77;;;3.10;99.90;;;;;;4950027;28;20660;-84
2020/12/21 04:24:48;;;;;;;6.47;5.97;;;3.20;99.90;;;;;;4950867;28;20445;-85
2020/12/21 04:27:14;;;;;;;6.17;5.63;;;3.20;99.90;;;;;;4950165;28;20273;-85
2020/12/21 04:29:40;;;;;;;6.67;6.17;;;3.30;99.90;;;;;;4949105;28;20234;-85
2020/12/21 04:32:05;;;;;;;6.67;6.13;;;3.20;99.90;;;;;;4947297;28;20505;-85
2020/12/21 04:34:31;;;;;;;6.67;6.17;;;3.30;99.90;;;;;;4950837;28;20195;-84
2020/12/21 04:36:57;;;;;;;6.93;6.33;;;3.30;99.90;;;;;;4949976;28;20185;-88
2020/12/21 04:39:23;;;;;;;6.07;5.57;;;3.40;99.90;;;;;;4946765;28;20251;-87
2020/12/21 04:41:56;;;;;;;7.40;6.70;;;3.30;99.90;;;;;;4950898;28;20508;-87
2020/12/21 04:44:23;;;;;;;6.30;5.80;;;3.30;99.90;;;;;;4949426;28;20202;-87
2020/12/21 04:46:51;;;;;;;6.33;5.73;;;3.30;99.90;;;;;;4949621;28;20448;-87
2020/12/21 04:49:17;;;;;;;6.83;6.23;;;3.30;99.90;;;;;;4950365;29;21017;-87
2020/12/21 04:51:46;;;;;;;6.97;6.27;;;3.30;99.90;;;;;;4950004;28;20451;-90
2020/12/21 04:54:12;;;;;;;6.47;5.87;;;3.20;99.90;;;;;;4949564;28;20189;-91
2020/12/21 04:56:38;;;;;;;7.43;6.80;;;3.30;99.90;;;;;;4950312;28;20435;-91
2020/12/21 04:59:04;;;;;;;8.37;7.60;;;3.20;99.90;;;;;;4948038;28;20426;-90
2020/12/21 05:01:30;;;;;;;8.50;7.70;;;3.20;99.90;;;;;;4945598;28;20426;-91
2020/12/21 05:03:55;;;;;;;8.73;7.83;;;3.20;99.90;;;;;;4950049;28;20202;-90
2020/12/21 05:06:21;;;;;;;12.70;8.60;;;3.30;99.90;;;;;;4951083;28;20185;-90
2020/12/21 05:08:47;;;;;;;8.70;7.80;;;3.30;99.90;;;;;;4949858;28;20305;-89
2020/12/21 05:11:12;;;;;;;9.03;8.13;;;3.40;99.90;;;;;;4950386;28;20705;-85
2020/12/21 05:13:38;;;;;;;9.63;8.73;;;3.40;99.90;;;;;;4944928;28;20203;-84
2020/12/21 05:16:04;;;;;;;8.30;7.50;;;3.40;99.90;;;;;;4947636;28;20182;-85
2020/12/21 05:18:34;;;;;;;7.50;6.80;;;3.40;99.90;;;;;;4950669;28;20206;-85
2020/12/21 05:21:05;;;;;;;8.13;7.03;;;3.40;99.90;;;;;;4962881;28;20700;-85
2020/12/21 05:23:32;;;;;;;7.80;6.93;;;3.30;99.90;;;;;;4947230;28;20447;-85
2020/12/21 05:26:03;;;;;;;8.57;7.67;;;3.40;99.90;;;;;;4948602;28;20477;-92
2020/12/21 05:28:30;;;;;;;7.73;7.03;;;3.40;99.90;;;;;;4946028;28;20438;-87
2020/12/21 05:30:59;;;;;;;7.77;6.97;;;3.30;99.90;;;;;;4946721;28;20451;-84
2020/12/21 05:33:25;;;;;;;10.53;8.73;;;3.30;99.90;;;;;;4947612;28;20442;-84
2020/12/21 05:35:51;;;;;;;8.40;7.70;;;3.20;99.90;;;;;;4949265;28;20460;-84
2020/12/21 05:38:28;;;;;;;10.20;9.10;;;3.10;99.90;;;;;;4948611;28;20492;-85
2020/12/21 05:41:06;;;;;;;9.30;8.10;;;3.20;99.90;;;;;;4946985;28;20797;-84
2020/12/21 05:43:32;;;;;;;12.00;9.90;;;3.30;99.90;;;;;;4949957;28;20450;-84
2020/12/21 05:46:08;;;;;;;16.27;11.80;;;3.30;99.90;;;;;;4948353;28;20439;-84
2020/12/21 05:48:36;;;;;;;13.63;10.87;;;3.30;99.90;;;;;;4947550;28;21155;-84
2020/12/21 05:51:04;;;;;;;21.07;12.07;;;3.40;99.90;;;;;;4947900;28;20452;-84
2020/12/21 05:53:41;;;;;;;26.17;11.77;;;3.40;99.90;;;;;;4950860;28;20474;-85
2020/12/21 05:56:08;;;;;;;16.50;10.67;;;3.30;99.90;;;;;;4947938;28;20806;-85
2020/12/21 05:58:38;;;;;;;26.63;12.37;;;3.20;99.90;;;;;;4950862;28;20498;-84
2020/12/21 06:01:12;;;;;;;16.03;10.70;;;3.20;99.90;;;;;;4949945;28;21156;-85
2020/12/21 06:03:50;;;;;;;39.70;11.70;;;3.20;99.90;;;;;;4947531;28;20873;-85
2020/12/21 06:06:21;;;;;;;16.17;11.00;;;3.10;99.90;;;;;;4949231;29;20448;-85
2020/12/21 06:08:58;;;;;;;12.90;9.70;;;3.20;99.90;;;;;;4947867;28;21031;-85
2020/12/21 06:11:27;;;;;;;13.33;10.03;;;3.30;99.90;;;;;;4946582;28;20471;-85
2020/12/21 06:13:56;;;;;;;12.10;9.13;;;3.30;99.90;;;;;;4947657;28;20457;-86
2020/12/21 06:16:26;;;;;;;14.20;9.83;;;3.40;99.90;;;;;;4946729;28;20451;-86
2020/12/21 06:18:59;;;;;;;15.13;10.07;;;3.40;99.90;;;;;;4943177;28;20482;-89
2020/12/21 06:21:26;;;;;;;16.40;11.03;;;3.40;99.90;;;;;;4947265;28;20442;-88
2020/12/21 06:23:52;;;;;;;15.53;11.60;;;3.40;99.90;;;;;;4939103;28;20445;-89
2020/12/21 06:26:18;;;;;;;14.73;10.30;;;3.40;99.90;;;;;;4946110;29;20496;-87
2020/12/21 06:28:49;;;;;;;16.50;10.40;;;3.30;99.90;;;;;;4949114;29;20461;-93
2020/12/21 06:31:44;;;;;;;13.03;9.50;;;3.30;99.90;;;;;;4948617;29;20720;-86
2020/12/21 06:34:19;;;;;;;10.90;8.57;;;3.30;99.90;;;;;;4947995;29;20637;-84
2020/12/21 06:36:48;;;;;;;10.50;9.40;;;3.20;99.90;;;;;;4946312;29;20879;-85
2020/12/21 06:39:24;;;;;;;8.90;8.00;;;3.10;99.90;;;;;;4947495;29;20551;-85
2020/12/21 06:42:06;;;;;;;10.10;8.47;;;3.10;99.90;;;;;;4947158;29;20473;-85
2020/12/21 06:44:33;;;;;;;9.53;8.50;;;3.00;99.90;;;;;;4949322;29;20495;-85
2020/12/21 06:47:00;;;;;;;10.50;8.90;;;3.10;99.90;;;;;;4948128;29;20914;-85
2020/12/21 06:49:26;;;;;;;9.43;8.50;;;3.10;99.90;;;;;;4947865;29;20437;-84
2020/12/21 06:51:53;;;;;;;9.83;8.83;;;3.20;99.90;;;;;;4947668;29;20446;-84
2020/12/21 06:54:19;;;;;;;10.40;9.40;;;3.30;99.90;;;;;;4947533;29;20437;-84
2020/12/21 06:56:47;;;;;;;9.50;8.50;;;3.20;99.90;;;;;;4946575;29;20425;-85
2020/12/21 06:59:19;;;;;;;7.97;7.13;;;3.10;99.90;;;;;;4946325;28;20481;-84
2020/12/21 07:01:47;;;;;;;8.20;7.50;;;3.10;99.90;;;;;;4949234;28;20517;-85
2020/12/21 07:04:18;;;;;;;7.60;6.90;;;3.20;99.90;;;;;;4948027;29;20595;-85
2020/12/21 07:06:47;;;;;;;8.63;7.83;;;3.20;99.90;;;;;;4949696;29;20511;-85
2020/12/21 07:09:14;;;;;;;9.33;8.43;;;3.30;99.90;;;;;;4948604;29;20521;-88
2020/12/21 07:11:42;;;;;;;11.00;10.00;;;3.40;99.90;;;;;;4947611;29;20438;-87
2020/12/21 07:14:13;;;;;;;10.40;9.23;;;3.50;99.90;;;;;;4949322;29;20535;-89
2020/12/21 07:16:39;;;;;;;11.50;10.30;;;3.60;99.90;;;;;;4949640;29;20800;-90
2020/12/21 07:19:05;;;;;;;10.33;9.43;;;3.70;99.90;;;;;;4949166;29;20489;-89
2020/12/21 07:21:36;;;;;;;12.10;10.20;;;3.70;99.90;;;;;;4950821;28;20182;-90
2020/12/21 07:24:04;;;;;;;10.40;9.13;;;3.80;99.90;;;;;;4951262;29;20677;-87
2020/12/21 07:26:32;;;;;;;9.83;8.83;;;3.80;99.90;;;;;;4952730;29;20439;-90
2020/12/21 07:28:58;;;;;;;9.53;8.60;;;3.80;99.90;;;;;;4951240;29;20432;-87
2020/12/21 07:31:33;;;;;;;8.90;8.10;;;3.60;99.90;;;;;;4950452;29;20213;-88
2020/12/21 07:34:01;;;;;;;7.70;7.00;;;3.60;99.90;;;;;;4952739;29;20427;-87
2020/12/21 07:36:35;;;;;;;8.20;7.50;;;3.60;99.90;;;;;;4951606;29;20428;-86
2020/12/21 07:39:22;;;;;;;8.57;7.77;;;3.60;99.90;;;;;;4955752;29;20478;-90
2020/12/21 07:41:52;;;;;;;7.77;7.10;;;3.60;99.90;;;;;;4948613;29;20453;-91
2020/12/21 07:44:46;;;;;;;8.30;7.50;;;3.70;99.90;;;;;;4951744;29;20431;-83
2020/12/21 07:47:19;;;;;;;9.30;8.40;;;3.70;99.90;;;;;;4946149;29;20508;-84
2020/12/21 07:49:45;;;;;;;7.40;6.70;;;3.60;99.90;;;;;;4949747;29;20431;-85
2020/12/21 07:52:14;;;;;;;9.50;8.60;;;3.70;99.90;;;;;;4950673;29;20445;-85
2020/12/21 07:54:42;;;;;;;9.33;8.00;;;3.70;99.90;;;;;;4950688;28;20472;-85
2020/12/21 07:57:10;;;;;;;8.50;7.70;;;3.80;99.90;;;;;;4950954;29;20449;-85
2020/12/21 07:59:35;;;;;;;9.03;7.23;;;3.70;99.90;;;;;;4948882;29;20478;-83
2020/12/21 08:02:17;;;;;;;7.80;7.00;;;3.70;99.90;;;;;;4944647;28;20672;-84
2020/12/21 08:04:43;;;;;;;7.43;6.83;;;3.80;99.90;;;;;;4946841;29;20183;-85
2020/12/21 08:07:13;;;;;;;7.10;6.40;;;3.80;99.90;;;;;;4948125;29;20441;-84
2020/12/21 08:09:40;;;;;;;8.37;7.67;;;3.90;99.90;;;;;;4948878;29;20187;-85
2020/12/21 08:12:13;;;;;;;8.30;7.60;;;3.90;99.90;;;;;;4946576;29;20434;-85
2020/12/21 08:14:39;;;;;;;7.13;6.47;;;3.90;99.90;;;;;;4948038;29;20494;-84
2020/12/21 08:17:15;;;;;;;6.10;5.60;;;4.00;99.90;;;;;;4949924;29;20833;-85
2020/12/21 08:19:55;;;;;;;7.40;6.70;;;3.90;99.90;;;;;;4947910;29;20478;-86
2020/12/21 08:22:26;;;;;;;6.23;5.63;;;4.00;99.90;;;;;;4944043;29;20454;-85
2020/12/21 08:25:12;;;;;;;6.20;5.70;;;4.20;99.90;;;;;;4949861;28;20994;-89
2020/12/21 08:27:38;;;;;;;8.03;7.20;;;4.30;99.90;;;;;;4943229;28;20454;-86
2020/12/21 08:30:10;;;;;;;6.93;6.20;;;4.30;99.90;;;;;;4951044;29;20445;-87
2020/12/21 08:32:36;;;;;;;7.73;7.13;;;4.40;99.90;;;;;;4946295;28;20530;-88
2020/12/21 08:35:02;;;;;;;6.70;6.10;;;4.40;99.90;;;;;;4945458;29;20682;-86
2020/12/21 08:37:28;;;;;;;6.60;6.10;;;4.50;99.90;;;;;;4947343;29;20191;-85
2020/12/21 08:39:55;;;;;;;7.93;7.23;;;4.50;99.90;;;;;;4943921;29;20486;-85
2020/12/21 08:42:20;;;;;;;7.70;7.00;;;4.70;99.90;;;;;;4946734;29;20201;-85
2020/12/21 08:44:49;;;;;;;7.23;6.63;;;4.80;99.90;;;;;;4948423;29;20448;-84
2020/12/21 08:47:15;;;;;;;6.60;6.10;;;4.80;99.90;;;;;;4946901;29;20224;-84
2020/12/21 08:49:41;;;;;;;6.20;5.70;;;4.90;99.90;;;;;;4947064;29;20467;-84
2020/12/21 08:52:23;;;;;;;5.80;5.40;;;5.00;99.90;;;;;;4946053;29;20186;-84
2020/12/21 08:54:48;;;;;;;6.50;6.00;;;5.00;99.90;;;;;;4947910;29;20664;-84
2020/12/21 08:57:14;;;;;;;5.90;5.40;;;5.10;99.90;;;;;;4946714;29;20546;-85
2020/12/21 08:59:40;;;;;;;6.50;6.00;;;5.10;99.90;;;;;;4947361;29;20216;-84
2020/12/21 09:02:06;;;;;;;7.07;6.57;;;5.20;99.90;;;;;;4945413;29;20198;-86
2020/12/21 09:04:33;;;;;;;13.00;11.60;;;5.20;99.90;;;;;;4942833;29;20458;-85
2020/12/21 09:06:59;;;;;;;8.60;7.80;;;5.30;99.90;;;;;;4947508;29;20207;-85
2020/12/21 09:09:25;;;;;;;8.00;7.40;;;5.30;99.90;;;;;;4941251;29;20856;-85
2020/12/21 09:11:54;;;;;;;7.20;6.57;;;5.30;99.90;;;;;;4944850;29;20198;-85
2020/12/21 09:14:24;;;;;;;6.87;6.27;;;5.20;99.90;;;;;;4944897;29;20475;-85
2020/12/21 09:16:51;;;;;;;6.13;5.63;;;5.30;99.90;;;;;;4949661;29;20841;-86
2020/12/21 09:19:17;;;;;;;7.07;6.37;;;5.30;99.90;;;;;;4949839;29;20474;-84
2020/12/21 09:21:43;;;;;;;6.80;6.30;;;5.30;99.90;;;;;;4946249;28;20774;-85
2020/12/21 09:24:09;;;;;;;7.90;7.20;;;5.40;99.90;;;;;;4946480;29;20454;-85
2020/12/21 09:26:35;;;;;;;7.23;6.60;;;5.40;99.90;;;;;;4949574;29;20450;-85
2020/12/21 09:29:02;;;;;;;6.53;5.90;;;5.50;99.90;;;;;;4943401;28;20199;-86
2020/12/21 09:31:27;;;;;;;6.23;5.63;;;5.60;99.90;;;;;;4947916;29;20503;-86
2020/12/21 09:33:54;;;;;;;6.87;6.17;;;5.70;99.90;;;;;;4949112;29;20440;-86
2020/12/21 09:36:20;;;;;;;6.63;6.07;;;5.80;99.90;;;;;;4951153;28;20236;-87
2020/12/21 09:38:47;;;;;;;7.47;6.77;;;5.90;99.90;;;;;;4943215;29;20857;-87
2020/12/21 09:41:18;;;;;;;13.43;8.80;;;6.10;99.90;;;;;;4946557;29;20853;-87
2020/12/21 09:43:45;;;;;;;8.60;7.80;;;6.20;99.90;;;;;;4946896;28;20483;-87
2020/12/21 09:46:16;;;;;;;8.17;7.37;;;6.30;99.90;;;;;;4948319;28;20445;-88
2020/12/21 09:48:41;;;;;;;8.47;7.67;;;6.40;99.90;;;;;;4946079;29;20477;-87
2020/12/21 09:51:07;;;;;;;8.63;7.83;;;6.40;99.90;;;;;;4945254;29;20864;-87
2020/12/21 09:53:33;;;;;;;7.90;7.20;;;6.40;99.90;;;;;;4948878;29;20542;-87
2020/12/21 09:55:59;;;;;;;10.43;9.43;;;6.40;99.90;;;;;;4946619;28;20906;-86
2020/12/21 09:58:25;;;;;;;11.70;10.60;;;6.20;99.90;;;;;;4946912;29;20579;-87
2020/12/21 10:00:50;;;;;;;8.87;7.90;;;6.20;99.90;;;;;;4948817;29;20451;-86
2020/12/21 10:03:16;;;;;;;11.17;7.90;;;6.20;99.90;;;;;;4941356;28;20211;-86
2020/12/21 10:05:42;;;;;;;8.70;7.90;;;6.10;99.90;;;;;;4946803;28;20449;-86
2020/12/21 10:08:07;;;;;;;9.80;7.43;;;6.10;99.90;;;;;;4949271;28;20187;-86
2020/12/21 10:10:33;;;;;;;7.87;7.00;;;6.10;99.90;;;;;;4950837;28;20214;-85
2020/12/21 10:12:58;;;;;;;8.60;7.80;;;6.10;99.90;;;;;;4946965;29;20781;-85
2020/12/21 10:15:24;;;;;;;8.77;7.87;;;6.20;99.90;;;;;;4949594;29;20190;-85
2020/12/21 10:17:50;;;;;;;7.97;7.17;;;6.30;99.90;;;;;;4946105;29;20649;-85
2020/12/21 10:20:15;;;;;;;8.13;7.30;;;6.30;99.90;;;;;;4944500;29;20278;-85
2020/12/21 10:22:41;;;;;;;8.60;7.10;;;6.30;99.90;;;;;;4946430;29;20188;-86
2020/12/21 10:25:07;;;;;;;7.67;6.97;;;6.20;99.90;;;;;;4948013;29;20769;-85
2020/12/21 10:27:33;;;;;;;8.93;8.03;;;6.00;99.90;;;;;;4948963;29;20591;-87
2020/12/21 10:29:59;;;;;;;8.90;8.10;;;6.00;99.90;;;;;;4947346;29;20534;-87
2020/12/21 10:32:25;;;;;;;8.43;7.50;;;6.20;99.90;;;;;;4947779;28;20446;-86
2020/12/21 10:34:50;;;;;;;9.10;8.30;;;6.20;99.90;;;;;;4949959;29;20194;-86
2020/12/21 10:37:16;;;;;;;10.07;9.10;;;6.40;99.90;;;;;;4947975;29;20574;-85
2020/12/21 10:39:42;;;;;;;10.07;9.07;;;6.40;99.90;;;;;;4945961;29;20219;-86
2020/12/21 10:42:07;;;;;;;9.50;8.57;;;6.50;99.90;;;;;;4947869;28;20188;-87
2020/12/21 10:44:33;;;;;;;9.90;9.00;;;6.50;99.90;;;;;;4946129;29;20223;-86
2020/12/21 10:46:59;;;;;;;9.43;8.50;;;6.60;99.90;;;;;;4946086;29;20218;-87
2020/12/21 10:49:25;;;;;;;10.17;9.07;;;6.50;99.90;;;;;;4947541;29;20200;-86
2020/12/21 10:51:51;;;;;;;12.40;11.10;;;6.60;99.90;;;;;;4948552;29;20456;-87
2020/12/21 10:54:17;;;;;;;13.27;11.87;;;6.60;99.90;;;;;;4948132;28;20499;-86
2020/12/21 10:56:42;;;;;;;13.70;11.27;;;6.60;99.90;;;;;;4946901;28;20184;-86
2020/12/21 10:59:08;;;;;;;9.07;7.80;;;6.60;99.90;;;;;;4952020;28;20262;-83
2020/12/21 11:01:34;;;;;;;11.30;8.47;;;6.60;99.90;;;;;;4949912;28;20191;-85
2020/12/21 11:03:59;;;;;;;8.53;7.73;;;6.60;99.90;;;;;;4949561;28;20442;-85
2020/12/21 11:06:25;;;;;;;9.30;8.40;;;6.50;99.90;;;;;;4950825;28;20528;-86
2020/12/21 11:08:52;;;;;;;9.10;8.20;;;6.50;99.90;;;;;;4951386;29;20191;-86
2020/12/21 11:11:25;;;;;;;10.93;9.83;;;6.40;99.90;;;;;;4949789;28;20758;-86
2020/12/21 11:13:52;;;;;;;11.40;10.23;;;6.40;99.90;;;;;;4950842;29;20801;-85
2020/12/21 11:16:17;;;;;;;10.43;9.30;;;6.50;99.90;;;;;;4953091;29;20917;-84
2020/12/21 11:18:43;;;;;;;11.03;9.13;;;6.60;99.90;;;;;;4951945;29;20473;-84
2020/12/21 11:21:09;;;;;;;13.17;10.40;;;6.70;99.90;;;;;;4950120;29;20193;-85
2020/12/21 11:23:34;;;;;;;13.77;10.50;;;6.70;99.90;;;;;;4952554;29;20668;-86
2020/12/21 11:26:00;;;;;;;11.90;9.90;;;6.80;99.90;;;;;;4952762;29;20691;-86
2020/12/21 11:28:25;;;;;;;10.73;9.67;;;6.90;99.90;;;;;;4968969;28;20692;-85
2020/12/21 11:30:51;;;;;;;10.03;8.87;;;7.00;99.90;;;;;;4953024;29;20649;-87
2020/12/21 11:33:17;;;;;;;10.07;9.10;;;7.10;99.90;;;;;;4952031;29;20202;-90
2020/12/21 11:35:42;;;;;;;9.30;8.50;;;7.20;99.90;;;;;;4949972;28;20575;-90
2020/12/21 11:38:08;;;;;;;8.90;7.93;;;7.40;99.90;;;;;;4959132;29;20234;-94
2020/12/21 11:40:35;;;;;;;9.23;8.33;;;7.50;99.90;;;;;;4951359;28;20210;-93
2020/12/21 11:43:01;;;;;;;11.50;8.90;;;7.60;99.90;;;;;;4947123;28;20186;-92
2020/12/21 11:45:26;;;;;;;9.43;8.57;;;7.60;99.90;;;;;;4952955;29;20435;-92
2020/12/21 11:47:52;;;;;;;10.00;9.00;;;7.60;99.90;;;;;;4949774;29;20191;-91
2020/12/21 11:50:24;;;;;;;10.80;9.70;;;7.60;99.90;;;;;;4950504;29;20246;-96
2020/12/21 11:52:50;;;;;;;11.00;9.70;;;7.70;99.90;;;;;;4948687;29;20188;-85
2020/12/21 11:55:15;;;;;;;14.53;11.77;;;7.70;99.90;;;;;;4952393;29;20443;-86
2020/12/21 11:57:41;;;;;;;10.70;9.60;;;7.70;99.90;;;;;;4950148;29;20194;-86
2020/12/21 12:00:07;;;;;;;9.67;8.67;;;7.70;99.90;;;;;;4949643;29;20228;-86
2020/12/21 12:02:32;;;;;;;10.33;9.23;;;7.60;99.90;;;;;;4949761;29;20183;-85
2020/12/21 12:04:59;;;;;;;9.57;8.20;;;7.70;99.90;;;;;;4947167;29;20190;-85
2020/12/21 12:07:25;;;;;;;9.33;8.43;;;7.70;99.90;;;;;;4960464;28;20310;-87
2020/12/21 12:09:50;;;;;;;9.10;8.20;;;7.80;99.90;;;;;;4946463;29;20459;-85
2020/12/21 12:12:16;;;;;;;9.93;8.63;;;7.80;99.90;;;;;;4949899;29;20187;-85
2020/12/21 12:14:42;;;;;;;14.43;12.10;;;7.90;99.90;;;;;;4948795;29;20617;-87
2020/12/21 12:17:07;;;;;;;10.20;9.20;;;7.90;99.90;;;;;;4949961;28;20238;-86
2020/12/21 12:19:33;;;;;;;8.67;7.20;;;8.00;99.90;;;;;;4949280;29;20684;-85
2020/12/21 12:21:59;;;;;;;8.03;7.23;;;8.00;99.90;;;;;;4949712;29;20437;-86
2020/12/21 12:24:25;;;;;;;10.13;8.73;;;7.90;99.90;;;;;;4949143;29;20460;-85
2020/12/21 12:26:52;;;;;;;9.43;8.30;;;7.90;99.90;;;;;;4948533;29;20850;-86
2020/12/21 12:29:18;;;;;;;10.83;9.00;;;8.00;99.90;;;;;;4946636;28;20282;-87
2020/12/21 12:31:44;;;;;;;8.57;7.63;;;8.20;99.90;;;;;;4949348;29;20449;-87
2020/12/21 12:34:10;;;;;;;7.70;6.90;;;8.30;99.90;;;;;;4948586;29;20789;-86
2020/12/21 12:36:36;;;;;;;9.97;7.77;;;8.40;99.90;;;;;;4949824;29;20200;-85
2020/12/21 12:39:02;;;;;;;8.53;7.07;;;8.30;99.90;;;;;;4948295;29;20524;-87
2020/12/21 12:41:28;;;;;;;11.73;7.10;;;8.20;99.90;;;;;;4948404;29;20798;-87
2020/12/21 12:43:54;;;;;;;8.33;7.40;;;8.10;99.90;;;;;;4950789;29;20431;-85
2020/12/21 12:46:19;;;;;;;8.73;7.87;;;8.00;99.90;;;;;;4947804;29;20294;-86
2020/12/21 12:48:45;;;;;;;7.80;7.07;;;8.10;99.90;;;;;;4946651;29;20187;-86